sensor_id;sensor_type;location;lat;lon;timestamp;pressure;altitude;pressure_sealevel;temperature;humidity
51468;BME280;37545;45.302;-122.946;2023-02-04T00:00:52;101116.13;;;10.81;100.00
51468;BME280;37545;45.302;-122.946;2023-02-04T00:03:27;101126.63;;;10.86;99.23
51468;BME280;37545;45.302;-122.946;2023-02-04T00:05:56;101133.59;;;10.88;97.59
51468;BME280;37545;45.302;-122.946;2023-02-04T00:08:26;101136.03;;;10.84;96.60
51468;BME280;37545;45.302;-122.946;2023-02-04T00:10:55;101134.25;;;10.83;94.96
51468;BME280;37545;45.302;-122.946;2023-02-04T00:13:23;101133.13;;;10.75;94.17
51468;BME280;37545;45.302;-122.946;2023-02-04T00:15:52;101140.13;;;10.77;94.91
51468;BME280;37545;45.302;-122.946;2023-02-04T00:18:20;101129.53;;;10.71;93.33
51468;BME280;37545;45.302;-122.946;2023-02-04T00:20:49;101131.16;;;10.67;92.53
51468;BME280;37545;45.302;-122.946;2023-02-04T00:23:17;101133.53;;;10.61;92.75
51468;BME280;37545;45.302;-122.946;2023-02-04T00:25:47;101134.19;;;10.56;93.12
51468;BME280;37545;45.302;-122.946;2023-02-04T00:28:16;101130.44;;;10.47;92.92
51468;BME280;37545;45.302;-122.946;2023-02-04T00:30:44;101130.28;;;10.43;93.16
51468;BME280;37545;45.302;-122.946;2023-02-04T00:33:14;101122.28;;;10.37;93.65
51468;BME280;37545;45.302;-122.946;2023-02-04T00:35:42;101130.06;;;10.37;94.66
51468;BME280;37545;45.302;-122.946;2023-02-04T00:38:11;101128.06;;;10.30;95.69
51468;BME280;37545;45.302;-122.946;2023-02-04T00:40:39;101132.22;;;10.26;97.43
51468;BME280;37545;45.302;-122.946;2023-02-04T00:43:09;101137.00;;;10.15;98.88
51468;BME280;37545;45.302;-122.946;2023-02-04T00:45:38;101134.34;;;10.14;100.00
51468;BME280;37545;45.302;-122.946;2023-02-04T00:48:07;101142.19;;;10.15;100.00
51468;BME280;37545;45.302;-122.946;2023-02-04T00:50:35;101141.31;;;10.15;100.00
51468;BME280;37545;45.302;-122.946;2023-02-04T00:53:05;101136.66;;;10.06;100.00
51468;BME280;37545;45.302;-122.946;2023-02-04T00:55:34;101153.31;;;10.14;100.00
51468;BME280;37545;45.302;-122.946;2023-02-04T00:58:02;101156.69;;;10.12;100.00
51468;BME280;37545;45.302;-122.946;2023-02-04T01:00:44;101157.44;;;10.09;100.00
51468;BME280;37545;45.302;-122.946;2023-02-04T01:03:12;101158.13;;;10.03;100.00
51468;BME280;37545;45.302;-122.946;2023-02-04T01:05:55;101163.28;;;10.03;100.00
51468;BME280;37545;45.302;-122.946;2023-02-04T01:08:26;101162.38;;;10.03;100.00
51468;BME280;37545;45.302;-122.946;2023-02-04T01:10:55;101163.91;;;9.98;100.00
51468;BME280;37545;45.302;-122.946;2023-02-04T01:13:24;101163.81;;;9.95;100.00
51468;BME280;37545;45.302;-122.946;2023-02-04T01:15:55;101162.16;;;9.97;100.00
51468;BME280;37545;45.302;-122.946;2023-02-04T01:18:23;101165.44;;;9.93;100.00
51468;BME280;37545;45.302;-122.946;2023-02-04T01:20:52;101162.09;;;9.95;100.00
51468;BME280;37545;45.302;-122.946;2023-02-04T01:23:20;101166.44;;;9.96;100.00
51468;BME280;37545;45.302;-122.946;2023-02-04T01:25:49;101159.44;;;9.94;100.00
51468;BME280;37545;45.302;-122.946;2023-02-04T01:28:17;101168.03;;;9.93;100.00
51468;BME280;37545;45.302;-122.946;2023-02-04T01:30:46;101161.09;;;9.92;100.00
51468;BME280;37545;45.302;-122.946;2023-02-04T01:33:16;101165.34;;;9.90;100.00
51468;BME280;37545;45.302;-122.946;2023-02-04T01:35:45;101160.91;;;9.87;100.00
51468;BME280;37545;45.302;-122.946;2023-02-04T01:38:13;101154.84;;;9.86;99.41
51468;BME280;37545;45.302;-122.946;2023-02-04T01:40:42;101153.88;;;9.83;98.02
51468;BME280;37545;45.302;-122.946;2023-02-04T01:43:11;101165.59;;;9.75;98.12
51468;BME280;37545;45.302;-122.946;2023-02-04T01:45:40;101161.31;;;9.75;98.49
51468;BME280;37545;45.302;-122.946;2023-02-04T01:48:08;101161.19;;;9.72;97.27
51468;BME280;37545;45.302;-122.946;2023-02-04T01:50:39;101169.66;;;9.68;96.84
51468;BME280;37545;45.302;-122.946;2023-02-04T01:53:08;101166.00;;;9.63;96.28
51468;BME280;37545;45.302;-122.946;2023-02-04T01:55:37;101177.22;;;9.63;97.00
51468;BME280;37545;45.302;-122.946;2023-02-04T01:58:09;101170.91;;;9.57;95.51
51468;BME280;37545;45.302;-122.946;2023-02-04T02:00:38;101170.91;;;9.57;96.08
51468;BME280;37545;45.302;-122.946;2023-02-04T02:03:07;101164.00;;;9.56;95.90
51468;BME280;37545;45.302;-122.946;2023-02-04T02:05:40;101172.56;;;9.55;96.31
51468;BME280;37545;45.302;-122.946;2023-02-04T02:08:12;101177.69;;;9.53;96.23
51468;BME280;37545;45.302;-122.946;2023-02-04T02:10:43;101177.59;;;9.52;95.94
51468;BME280;37545;45.302;-122.946;2023-02-04T02:13:14;101191.38;;;9.51;96.57
51468;BME280;37545;45.302;-122.946;2023-02-04T02:15:44;101181.03;;;9.51;95.99
51468;BME280;37545;45.302;-122.946;2023-02-04T02:18:13;101188.59;;;9.46;96.31
51468;BME280;37545;45.302;-122.946;2023-02-04T02:20:44;101191.38;;;9.51;96.33
51468;BME280;37545;45.302;-122.946;2023-02-04T02:23:19;101189.69;;;9.53;96.41
51468;BME280;37545;45.302;-122.946;2023-02-04T02:25:52;101189.84;;;9.56;95.70
51468;BME280;37545;45.302;-122.946;2023-02-04T02:28:21;101199.47;;;9.60;95.65
51468;BME280;37545;45.302;-122.946;2023-02-04T02:30:50;101195.22;;;9.62;95.37
51468;BME280;37545;45.302;-122.946;2023-02-04T02:33:20;101206.59;;;9.65;95.93
51468;BME280;37545;45.302;-122.946;2023-02-04T02:35:48;101194.63;;;9.68;96.35
51468;BME280;37545;45.302;-122.946;2023-02-04T02:38:18;101201.69;;;9.72;96.25
51468;BME280;37545;45.302;-122.946;2023-02-04T02:40:49;101204.31;;;9.73;96.97
51468;BME280;37545;45.302;-122.946;2023-02-04T02:43:23;101214.78;;;9.76;96.66
51468;BME280;37545;45.302;-122.946;2023-02-04T02:45:53;101213.13;;;9.78;96.90
51468;BME280;37545;45.302;-122.946;2023-02-04T02:48:22;101215.75;;;9.80;97.55
51468;BME280;37545;45.302;-122.946;2023-02-04T02:50:51;101218.34;;;9.80;97.38
51468;BME280;37545;45.302;-122.946;2023-02-04T02:53:20;101227.94;;;9.82;100.00
51468;BME280;37545;45.302;-122.946;2023-02-04T02:55:49;101225.34;;;9.82;100.00
51468;BME280;37545;45.302;-122.946;2023-02-04T02:58:24;101236.63;;;9.84;100.00
51468;BME280;37545;45.302;-122.946;2023-02-04T03:00:54;101243.56;;;9.85;100.00
51468;BME280;37545;45.302;-122.946;2023-02-04T03:03:25;101243.63;;;9.87;100.00
51468;BME280;37545;45.302;-122.946;2023-02-04T03:05:56;101236.81;;;9.89;100.00
51468;BME280;37545;45.302;-122.946;2023-02-04T03:08:27;101247.16;;;9.89;100.00
51468;BME280;37545;45.302;-122.946;2023-02-04T03:10:56;101246.34;;;9.90;100.00
51468;BME280;37545;45.302;-122.946;2023-02-04T03:13:26;101253.34;;;9.93;100.00
51468;BME280;37545;45.302;-122.946;2023-02-04T03:15:55;101245.59;;;9.93;100.00
51468;BME280;37545;45.302;-122.946;2023-02-04T03:18:24;101244.75;;;9.94;100.00
51468;BME280;37545;45.302;-122.946;2023-02-04T03:20:53;101246.53;;;9.95;100.00
51468;BME280;37545;45.302;-122.946;2023-02-04T03:23:22;101248.16;;;9.93;100.00
51468;BME280;37545;45.302;-122.946;2023-02-04T03:25:51;101244.75;;;9.94;100.00
51468;BME280;37545;45.302;-122.946;2023-02-04T03:28:20;101253.44;;;9.96;100.00
51468;BME280;37545;45.302;-122.946;2023-02-04T03:30:50;101255.22;;;9.97;100.00
51468;BME280;37545;45.302;-122.946;2023-02-04T03:33:20;101246.63;;;9.98;100.00
51468;BME280;37545;45.302;-122.946;2023-02-04T03:35:49;101246.56;;;9.96;100.00
51468;BME280;37545;45.302;-122.946;2023-02-04T03:38:18;101252.69;;;9.98;100.00
51468;BME280;37545;45.302;-122.946;2023-02-04T03:40:47;101256.91;;;9.96;100.00
51468;BME280;37545;45.302;-122.946;2023-02-04T03:43:15;101246.56;;;9.96;100.00
51468;BME280;37545;45.302;-122.946;2023-02-04T03:45:44;101253.44;;;9.96;100.00
51468;BME280;37545;45.302;-122.946;2023-02-04T03:48:14;101250.94;;;9.97;100.00
51468;BME280;37545;45.302;-122.946;2023-02-04T03:50:43;101243.19;;;9.97;100.00
51468;BME280;37545;45.302;-122.946;2023-02-04T03:53:11;101239.72;;;9.97;100.00
51468;BME280;37545;45.302;-122.946;2023-02-04T03:55:40;101240.53;;;9.96;100.00
51468;BME280;37545;45.302;-122.946;2023-02-04T03:58:08;101241.28;;;9.93;100.00
51468;BME280;37545;45.302;-122.946;2023-02-04T04:00:37;101239.47;;;9.91;100.00
51468;BME280;37545;45.302;-122.946;2023-02-04T04:03:05;101245.47;;;9.90;100.00
51468;BME280;37545;45.302;-122.946;2023-02-04T04:05:36;101248.94;;;9.90;100.00
51468;BME280;37545;45.302;-122.946;2023-02-04T04:08:04;101241.97;;;9.89;100.00
51468;BME280;37545;45.302;-122.946;2023-02-04T04:10:33;101248.78;;;9.87;100.00
51468;BME280;37545;45.302;-122.946;2023-02-04T04:13:03;101258.25;;;9.86;100.00
51468;BME280;37545;45.302;-122.946;2023-02-04T04:15:31;101251.25;;;9.84;100.00
51468;BME280;37545;45.302;-122.946;2023-02-04T04:18:00;101257.25;;;9.83;100.00
51468;BME280;37545;45.302;-122.946;2023-02-04T04:20:29;101256.31;;;9.81;100.00
51468;BME280;37545;45.302;-122.946;2023-02-04T04:23:00;101254.59;;;9.81;100.00
51468;BME280;37545;45.302;-122.946;2023-02-04T04:25:28;101257.13;;;9.80;100.00
51468;BME280;37545;45.302;-122.946;2023-02-04T04:27:57;101252.72;;;9.77;100.00
51468;BME280;37545;45.302;-122.946;2023-02-04T04:30:25;101250.09;;;9.76;100.00
51468;BME280;37545;45.302;-122.946;2023-02-04T04:32:54;101259.50;;;9.75;100.00
51468;BME280;37545;45.302;-122.946;2023-02-04T04:35:22;101250.81;;;9.73;100.00
51468;BME280;37545;45.302;-122.946;2023-02-04T04:37:51;101253.34;;;9.72;100.00
51468;BME280;37545;45.302;-122.946;2023-02-04T04:40:28;101252.47;;;9.71;100.00
51468;BME280;37545;45.302;-122.946;2023-02-04T04:42:57;101248.19;;;9.72;100.00
51468;BME280;37545;45.302;-122.946;2023-02-04T04:45:25;101255.09;;;9.73;100.00
51468;BME280;37545;45.302;-122.946;2023-02-04T04:47:54;101255.97;;;9.73;100.00
51468;BME280;37545;45.302;-122.946;2023-02-04T04:50:23;101261.16;;;9.73;100.00
51468;BME280;37545;45.302;-122.946;2023-02-04T04:52:51;101261.97;;;9.72;100.00
51468;BME280;37545;45.302;-122.946;2023-02-04T04:55:20;101274.16;;;9.75;100.00
51468;BME280;37545;45.302;-122.946;2023-02-04T04:57:51;101276.53;;;9.70;100.00
51468;BME280;37545;45.302;-122.946;2023-02-04T05:00:20;101278.06;;;9.65;100.00
51468;BME280;37545;45.302;-122.946;2023-02-04T05:02:49;101273.00;;;9.68;100.00
51468;BME280;37545;45.302;-122.946;2023-02-04T05:05:17;101266.88;;;9.66;100.00
51468;BME280;37545;45.302;-122.946;2023-02-04T05:07:46;101279.00;;;9.67;100.00
51468;BME280;37545;45.302;-122.946;2023-02-04T05:10:15;101274.63;;;9.66;100.00
51468;BME280;37545;45.302;-122.946;2023-02-04T05:12:44;101272.13;;;9.68;100.00
51468;BME280;37545;45.302;-122.946;2023-02-04T05:15:14;101273.88;;;9.69;100.00
51468;BME280;37545;45.302;-122.946;2023-02-04T05:17:42;101275.78;;;9.73;100.00
51468;BME280;37545;45.302;-122.946;2023-02-04T05:20:11;101284.41;;;9.73;100.00
51468;BME280;37545;45.302;-122.946;2023-02-04T05:22:40;101274.06;;;9.73;100.00
51468;BME280;37545;45.302;-122.946;2023-02-04T05:25:08;101273.16;;;9.71;100.00
51468;BME280;37545;45.302;-122.946;2023-02-04T05:27:37;101266.19;;;9.70;100.00
51468;BME280;37545;45.302;-122.946;2023-02-04T05:30:08;101278.75;;;9.82;100.00
51468;BME280;37545;45.302;-122.946;2023-02-04T05:32:38;101284.94;;;9.85;100.00
51468;BME280;37545;45.302;-122.946;2023-02-04T05:35:07;101285.88;;;9.88;100.00
51468;BME280;37545;45.302;-122.946;2023-02-04T05:37:36;101286.00;;;9.91;100.00
51468;BME280;37545;45.302;-122.946;2023-02-04T05:40:05;101299.00;;;9.92;100.00
51468;BME280;37545;45.302;-122.946;2023-02-04T05:42:34;101295.56;;;9.93;100.00
51468;BME280;37545;45.302;-122.946;2023-02-04T05:45:03;101289.53;;;9.93;100.00
51468;BME280;37545;45.302;-122.946;2023-02-04T05:47:32;101287.00;;;9.94;100.00
51468;BME280;37545;45.302;-122.946;2023-02-04T05:50:02;101288.00;;;9.98;100.00
51468;BME280;37545;45.302;-122.946;2023-02-04T05:52:30;101290.69;;;10.01;100.00
51468;BME280;37545;45.302;-122.946;2023-02-04T05:54:59;101299.38;;;10.01;100.00
51468;BME280;37545;45.302;-122.946;2023-02-04T05:57:27;101302.00;;;10.03;100.00
51468;BME280;37545;45.302;-122.946;2023-02-04T05:59:56;101301.19;;;10.04;100.00
51468;BME280;37545;45.302;-122.946;2023-02-04T06:02:28;101299.47;;;10.04;100.00
51468;BME280;37545;45.302;-122.946;2023-02-04T06:04:56;101296.88;;;10.04;100.00
51468;BME280;37545;45.302;-122.946;2023-02-04T06:07:26;101290.97;;;10.07;100.00
51468;BME280;37545;45.302;-122.946;2023-02-04T06:09:55;101291.78;;;10.06;100.00
51468;BME280;37545;45.302;-122.946;2023-02-04T06:12:23;101297.91;;;10.08;100.00
51468;BME280;37545;45.302;-122.946;2023-02-04T06:14:52;101290.25;;;10.11;100.00
51468;BME280;37545;45.302;-122.946;2023-02-04T06:17:21;101295.25;;;10.06;100.00
51468;BME280;37545;45.302;-122.946;2023-02-04T06:19:50;101293.53;;;10.07;100.00
51468;BME280;37545;45.302;-122.946;2023-02-04T06:22:18;101297.06;;;10.09;100.00
51468;BME280;37545;45.302;-122.946;2023-02-04T06:24:48;101293.69;;;10.10;100.00
51468;BME280;37545;45.302;-122.946;2023-02-04T06:27:17;101290.25;;;10.11;100.00
51468;BME280;37545;45.302;-122.946;2023-02-04T06:29:48;101293.69;;;10.10;100.00
51468;BME280;37545;45.302;-122.946;2023-02-04T06:32:17;101288.50;;;10.10;100.00
51468;BME280;37545;45.302;-122.946;2023-02-04T06:34:46;101280.75;;;10.10;100.00
51468;BME280;37545;45.302;-122.946;2023-02-04T06:37:15;101287.56;;;10.08;100.00
51468;BME280;37545;45.302;-122.946;2023-02-04T06:39:44;101277.22;;;10.08;100.00
51468;BME280;37545;45.302;-122.946;2023-02-04T06:42:14;101282.31;;;10.06;100.00
51468;BME280;37545;45.302;-122.946;2023-02-04T06:44:42;101281.44;;;10.06;100.00
51468;BME280;37545;45.302;-122.946;2023-02-04T06:47:11;101284.91;;;10.06;100.00
51468;BME280;37545;45.302;-122.946;2023-02-04T06:49:39;101280.63;;;10.07;100.00
51468;BME280;37545;45.302;-122.946;2023-02-04T06:52:08;101270.19;;;10.05;100.00
51468;BME280;37545;45.302;-122.946;2023-02-04T06:54:37;101278.03;;;10.07;100.00
51468;BME280;37545;45.302;-122.946;2023-02-04T06:57:05;101276.38;;;10.09;100.00
51468;BME280;37545;45.302;-122.946;2023-02-04T06:59:36;101276.50;;;10.12;100.00
51468;BME280;37545;45.302;-122.946;2023-02-04T07:02:06;101273.91;;;10.12;100.00
51468;BME280;37545;45.302;-122.946;2023-02-04T07:04:35;101280.78;;;10.12;100.00
51468;BME280;37545;45.302;-122.946;2023-02-04T07:07:03;101281.66;;;10.12;100.00
51468;BME280;37545;45.302;-122.946;2023-02-04T07:09:32;101285.09;;;10.11;100.00
51468;BME280;37545;45.302;-122.946;2023-02-04T07:12:00;101286.84;;;10.12;100.00
51468;BME280;37545;45.302;-122.946;2023-02-04T07:14:29;101283.44;;;10.13;100.00
51468;BME280;37545;45.302;-122.946;2023-02-04T07:16:59;101281.66;;;10.12;100.00
51468;BME280;37545;45.302;-122.946;2023-02-04T07:19:27;101271.97;;;10.06;100.00
51468;BME280;37545;45.302;-122.946;2023-02-04T07:21:56;101279.91;;;10.11;100.00
51468;BME280;37545;45.302;-122.946;2023-02-04T07:24:25;101281.56;;;10.09;100.00
51468;BME280;37545;45.302;-122.946;2023-02-04T07:26:53;101291.09;;;10.10;100.00
51468;BME280;37545;45.302;-122.946;2023-02-04T07:29:22;101284.97;;;10.08;100.00
51468;BME280;37545;45.302;-122.946;2023-02-04T07:31:50;101290.16;;;10.08;100.00
51468;BME280;37545;45.302;-122.946;2023-02-04T07:34:20;101283.97;;;10.04;100.00
51468;BME280;37545;45.302;-122.946;2023-02-04T07:36:49;101289.06;;;10.03;100.00
51468;BME280;37545;45.302;-122.946;2023-02-04T07:39:18;101286.47;;;10.03;100.00
51468;BME280;37545;45.302;-122.946;2023-02-04T07:41:46;101282.13;;;10.02;100.00
51468;BME280;37545;45.302;-122.946;2023-02-04T07:44:15;101285.53;;;10.01;100.00
51468;BME280;37545;45.302;-122.946;2023-02-04T07:46:43;101289.91;;;10.02;100.00
51468;BME280;37545;45.302;-122.946;2023-02-04T07:49:12;101288.94;;;10.00;100.00
51468;BME280;37545;45.302;-122.946;2023-02-04T07:51:42;101291.53;;;10.00;100.00
51468;BME280;37545;45.302;-122.946;2023-02-04T07:54:10;101280.25;;;9.98;100.00
51468;BME280;37545;45.302;-122.946;2023-02-04T07:56:39;101285.41;;;9.98;100.00
51468;BME280;37545;45.302;-122.946;2023-02-04T07:59:08;101278.13;;;9.88;100.00
51468;BME280;37545;45.302;-122.946;2023-02-04T08:01:36;101286.25;;;9.97;100.00
51468;BME280;37545;45.302;-122.946;2023-02-04T08:04:05;101282.72;;;9.95;100.00
51468;BME280;37545;45.302;-122.946;2023-02-04T08:06:33;101281.84;;;9.94;100.00
51468;BME280;37545;45.302;-122.946;2023-02-04T08:09:03;101287.00;;;9.94;100.00
51468;BME280;37545;45.302;-122.946;2023-02-04T08:11:32;101284.44;;;9.94;100.00
51468;BME280;37545;45.302;-122.946;2023-02-04T08:14:01;101289.53;;;9.93;100.00
51468;BME280;37545;45.302;-122.946;2023-02-04T08:16:29;101286.94;;;9.93;100.00
51468;BME280;37545;45.302;-122.946;2023-02-04T08:18:58;101284.34;;;9.93;100.00
51468;BME280;37545;45.302;-122.946;2023-02-04T08:21:26;101280.81;;;9.91;100.00
51468;BME280;37545;45.302;-122.946;2023-02-04T08:23:55;101281.59;;;9.88;100.00
51468;BME280;37545;45.302;-122.946;2023-02-04T08:26:27;101276.34;;;9.86;100.00
51468;BME280;37545;45.302;-122.946;2023-02-04T08:28:56;101280.56;;;9.84;100.00
51468;BME280;37545;45.302;-122.946;2023-02-04T08:31:24;101281.41;;;9.83;100.00
51468;BME280;37545;45.302;-122.946;2023-02-04T08:33:53;101286.50;;;9.82;100.00
51468;BME280;37545;45.302;-122.946;2023-02-04T08:36:21;101283.03;;;9.81;100.00
51468;BME280;37545;45.302;-122.946;2023-02-04T08:38:50;101282.00;;;9.78;100.00
51468;BME280;37545;45.302;-122.946;2023-02-04T08:41:18;101283.72;;;9.77;100.00
51468;BME280;37545;45.302;-122.946;2023-02-04T08:43:49;101282.91;;;9.78;100.00
51468;BME280;37545;45.302;-122.946;2023-02-04T08:46:17;101276.91;;;9.79;100.00
51468;BME280;37545;45.302;-122.946;2023-02-04T08:48:46;101262.66;;;9.68;100.00
51468;BME280;37545;45.302;-122.946;2023-02-04T08:51:14;101271.75;;;9.79;100.00
51468;BME280;37545;45.302;-122.946;2023-02-04T08:53:43;101266.47;;;9.76;100.00
51468;BME280;37545;45.302;-122.946;2023-02-04T08:56:11;101270.59;;;9.73;100.00
51468;BME280;37545;45.302;-122.946;2023-02-04T08:58:42;101265.31;;;9.70;100.00
51468;BME280;37545;45.302;-122.946;2023-02-04T09:01:12;101269.63;;;9.69;100.00
51468;BME280;37545;45.302;-122.946;2023-02-04T09:03:41;101273.09;;;9.70;100.00
51468;BME280;37545;45.302;-122.946;2023-02-04T09:06:09;101273.97;;;9.70;100.00
51468;BME280;37545;45.302;-122.946;2023-02-04T09:08:44;101278.16;;;9.68;100.00
51468;BME280;37545;45.302;-122.946;2023-02-04T09:11:13;101279.88;;;9.68;100.00
51468;BME280;37545;45.302;-122.946;2023-02-04T09:13:41;101280.75;;;9.68;100.00
51468;BME280;37545;45.302;-122.946;2023-02-04T09:16:11;101274.78;;;9.69;100.00
51468;BME280;37545;45.302;-122.946;2023-02-04T09:18:40;101273.00;;;9.68;100.00
51468;BME280;37545;45.302;-122.946;2023-02-04T09:21:08;101256.63;;;9.68;100.00
51468;BME280;37545;45.302;-122.946;2023-02-04T09:23:37;101259.13;;;9.66;100.00
51468;BME280;37545;45.302;-122.946;2023-02-04T09:26:05;101260.78;;;9.64;100.00
51468;BME280;37545;45.302;-122.946;2023-02-04T09:28:34;101259.97;;;9.65;100.00
51468;BME280;37545;45.302;-122.946;2023-02-04T09:31:03;101262.56;;;9.65;100.00
51468;BME280;37545;45.302;-122.946;2023-02-04T09:33:34;101252.22;;;9.65;100.00
51468;BME280;37545;45.302;-122.946;2023-02-04T09:36:03;101254.72;;;9.63;100.00
51468;BME280;37545;45.302;-122.946;2023-02-04T09:38:32;101252.16;;;9.63;100.00
51468;BME280;37545;45.302;-122.946;2023-02-04T09:41:03;101243.53;;;9.63;100.00
51468;BME280;37545;45.302;-122.946;2023-02-04T09:43:35;101252.06;;;9.62;100.00
51468;BME280;37545;45.302;-122.946;2023-02-04T09:46:04;101245.16;;;9.61;100.00
51468;BME280;37545;45.302;-122.946;2023-02-04T09:48:37;101246.78;;;9.59;100.00
51468;BME280;37545;45.302;-122.946;2023-02-04T09:51:06;101243.25;;;9.57;100.00
51468;BME280;37545;45.302;-122.946;2023-02-04T09:53:36;101241.50;;;9.56;100.00
51468;BME280;37545;45.302;-122.946;2023-02-04T09:56:08;101242.31;;;9.55;100.00
51468;BME280;37545;45.302;-122.946;2023-02-04T09:58:37;101243.94;;;9.53;100.00
51468;BME280;37545;45.302;-122.946;2023-02-04T10:01:11;101245.59;;;9.51;100.00
51468;BME280;37545;45.302;-122.946;2023-02-04T10:03:44;101233.13;;;9.40;100.00
51468;BME280;37545;45.302;-122.946;2023-02-04T10:06:14;101239.41;;;9.47;100.00
51468;BME280;37545;45.302;-122.946;2023-02-04T10:08:43;101250.69;;;9.49;100.00
51468;BME280;37545;45.302;-122.946;2023-02-04T10:11:12;101243.03;;;9.51;100.00
51468;BME280;37545;45.302;-122.946;2023-02-04T10:13:43;101242.19;;;9.52;100.00
51468;BME280;37545;45.302;-122.946;2023-02-04T10:16:17;101230.91;;;9.50;100.00
51468;BME280;37545;45.302;-122.946;2023-02-04T10:18:48;101245.34;;;9.44;100.00
51468;BME280;37545;45.302;-122.946;2023-02-04T10:21:20;101229.78;;;9.43;100.00
51468;BME280;37545;45.302;-122.946;2023-02-04T10:23:52;101234.94;;;9.43;100.00
51468;BME280;37545;45.302;-122.946;2023-02-04T10:26:22;101231.41;;;9.41;100.00
51468;BME280;37545;45.302;-122.946;2023-02-04T10:28:58;101228.91;;;9.42;100.00
51468;BME280;37545;45.302;-122.946;2023-02-04T10:31:34;101239.34;;;9.46;100.00
51468;BME280;37545;45.302;-122.946;2023-02-04T10:34:11;101234.31;;;9.49;100.00
51468;BME280;37545;45.302;-122.946;2023-02-04T10:36:41;101235.31;;;9.52;100.00
51468;BME280;37545;45.302;-122.946;2023-02-04T10:39:12;101237.97;;;9.54;100.00
51468;BME280;37545;45.302;-122.946;2023-02-04T10:41:46;101236.34;;;9.56;100.00
51468;BME280;37545;45.302;-122.946;2023-02-04T10:44:16;101234.69;;;9.58;100.00
51468;BME280;37545;45.302;-122.946;2023-02-04T10:46:45;101251.16;;;9.60;100.00
51468;BME280;37545;45.302;-122.946;2023-02-04T10:49:20;101246.03;;;9.61;100.00
51468;BME280;37545;45.302;-122.946;2023-02-04T10:51:49;101240.84;;;9.61;100.00
51468;BME280;37545;45.302;-122.946;2023-02-04T10:54:19;101233.06;;;9.60;100.00
51468;BME280;37545;45.302;-122.946;2023-02-04T10:57:10;101229.53;;;9.58;100.00
51468;BME280;37545;45.302;-122.946;2023-02-04T10:59:42;101237.41;;;9.61;100.00
51468;BME280;37545;45.302;-122.946;2023-02-04T11:02:30;101239.97;;;9.61;100.00
51468;BME280;37545;45.302;-122.946;2023-02-04T11:05:03;101235.78;;;9.63;100.00
51468;BME280;37545;45.302;-122.946;2023-02-04T11:07:32;101231.53;;;9.65;100.00
51468;BME280;37545;45.302;-122.946;2023-02-04T11:10:00;101219.44;;;9.64;100.00
51468;BME280;37545;45.302;-122.946;2023-02-04T11:12:40;101222.84;;;9.63;100.00
51468;BME280;37545;45.302;-122.946;2023-02-04T11:15:40;101229.72;;;9.62;100.00
51468;BME280;37545;45.302;-122.946;2023-02-04T11:18:11;101228.78;;;9.60;100.00
51468;BME280;37545;45.302;-122.946;2023-02-04T11:20:41;101226.13;;;9.59;100.00
51468;BME280;37545;45.302;-122.946;2023-02-04T11:23:28;101220.84;;;9.56;100.00
51468;BME280;37545;45.302;-122.946;2023-02-04T11:26:15;101218.94;;;9.52;100.00
51468;BME280;37545;45.302;-122.946;2023-02-04T11:28:50;101229.16;;;9.49;100.00
51468;BME280;37545;45.302;-122.946;2023-02-04T11:31:40;101225.47;;;9.43;100.00
51468;BME280;37545;45.302;-122.946;2023-02-04T11:34:11;101222.84;;;9.42;100.00
51468;BME280;37545;45.302;-122.946;2023-02-04T11:37:12;101205.38;;;9.36;100.00
51468;BME280;37545;45.302;-122.946;2023-02-04T11:39:42;101212.56;;;9.43;100.00
51468;BME280;37545;45.302;-122.946;2023-02-04T11:42:22;101210.94;;;9.46;100.00
51468;BME280;37545;45.302;-122.946;2023-02-04T11:44:52;101201.44;;;9.44;100.00
51468;BME280;37545;45.302;-122.946;2023-02-04T11:47:23;101198.78;;;9.43;100.00
51468;BME280;37545;45.302;-122.946;2023-02-04T11:49:55;101192.75;;;9.42;100.00
51468;BME280;37545;45.302;-122.946;2023-02-04T11:52:36;101191.78;;;9.40;100.00
51468;BME280;37545;45.302;-122.946;2023-02-04T11:55:05;101191.66;;;9.37;100.00
51468;BME280;37545;45.302;-122.946;2023-02-04T11:57:38;101191.59;;;9.36;100.00
51468;BME280;37545;45.302;-122.946;2023-02-04T12:00:13;101181.25;;;9.36;100.00
51468;BME280;37545;45.302;-122.946;2023-02-04T12:02:43;101188.94;;;9.34;100.00
51468;BME280;37545;45.302;-122.946;2023-02-04T12:05:14;101183.72;;;9.33;100.00
51468;BME280;37545;45.302;-122.946;2023-02-04T12:07:45;101180.13;;;9.29;100.00
51468;BME280;37545;45.302;-122.946;2023-02-04T12:10:22;101181.84;;;9.29;100.00
51468;BME280;37545;45.302;-122.946;2023-02-04T12:12:53;101180.00;;;9.26;100.00
51468;BME280;37545;45.302;-122.946;2023-02-04T12:15:29;101188.56;;;9.25;100.00
51468;BME280;37545;45.302;-122.946;2023-02-04T12:18:02;101181.66;;;9.24;100.00
51468;BME280;37545;45.302;-122.946;2023-02-04T12:20:33;101185.97;;;9.25;100.00
51468;BME280;37545;45.302;-122.946;2023-02-04T12:23:03;101176.56;;;9.26;100.00
51468;BME280;37545;45.302;-122.946;2023-02-04T12:25:32;101177.44;;;9.26;100.00
51468;BME280;37545;45.302;-122.946;2023-02-04T12:28:00;101168.75;;;9.24;100.00
51468;BME280;37545;45.302;-122.946;2023-02-04T12:30:29;101165.13;;;9.20;100.00
51468;BME280;37545;45.302;-122.946;2023-02-04T12:32:57;101161.75;;;9.21;100.00
51468;BME280;37545;45.302;-122.946;2023-02-04T12:35:26;101162.50;;;9.19;100.00